Ana Sayfa
METAR-TAF:

METAR-TAF

Havaalanları :

Singapur, Singapur

Enlem: 01-22N, Boylam: 103-55E, yükseklik: 18 m

Güncel hava durumu gözlemi

Rapor saat 08:00 UTC de 1 saat ve 6 dakika önce yapıldı.
Rüzgar kuzeydoğudan 12 kt
Sıcaklık 33°C
Nem 56%
Basınç 1008 hPa
Görüş mesafesi 10 km veya daha fazla
2300 ft yükseklikte az bulutlu
30000 ft yükseklikte parçalı bulutlu

METAR: WSAP 250800Z 04012KT 9999 FEW023 SCT300 33/23 Q1008

Saat: 17:06 (09:06 UTC)

Tahmin

Rapor saat 08:00 UTC de 1 saat ve 6 dakika önce yapıldı.
Ayın 25'si saat 08 UTC'den ayın 26'si saat 12 UTC'ye kadar geçerli Tahmin
Rüzgar kuzey/kuzeydoğudan 10 kt
Görüş mesafesi 10 km veya daha fazla
1500 ft yükseklikte az bulutlu
2000 ft yükseklikte parçalı bulutlu
Geçici
ayın 26'si saat 06 UTC'den ayın 26'si saat 10 UTC'ye kadar
Rüzgar kuzey/kuzeydoğudan 15 kt ve 25 kt'a kadar ani rüzgarlar

TAF: WSAP 250800Z 2508/2612 03010KT 9999 FEW015 SCT020 TEMPO 2606/2610 03015G25KT

4.000'den fazla havaalanı için hava durumu gözlemleri ve tahminleri (METAR ve TAF raporları).

Kullanılabilir istasyonlar harita üzerinde sarı ve kırmızı noktalarla gösterilir.

İstasyonun adını görmek için fareyi noktanın üzerinde gezdirin.

Sonrasında hava gözlem ve tahminlerini görmek için tıklayın.

Haritayı değiştirmek için: yaklaştırmak için siyah artı işaretli yeşil düğmeye ve uzaklaştırmak için de eksi işaretli düğmeye hızla tıklayın; bitişik haritalar için yeşil okları kullanın.


METAR-TAF: